Arleta, California
Current Conditions -  °F | °C
As of 2:53 PM on Thursday 18 Dec 2014 (Local Time) from KBUR Reporting Station
Few Clouds Few Clouds  
Wind Chill: 61°   Ceiling: Unl
Heat Index: 61°   Visibility: 10mi
Dew Point: 46°   Wind: 6mph
Humidity: 58%   Direction: NA
Pressure: 30.12"   Gusts: NA
Location:  34.2574°N, 118.255°W
Report Text: KBUR 182253Z VRB05KT 10SM FEW055 16/08 A3012 RMK AO2 SLP194 T01610078
Loading
Personal Weather Stations






























Interactive Weather Map New forecast layout! Learn more

10-Day Weather Forecast

Advertisements
Track Severe Weather on mobile